Time,TemperatureF,DewpointF,PressureIn,WindDirection,WindDirectionDegrees,WindSpeedMPH,WindSpeedGustMPH,Humidity,HourlyPrecipIn,Conditions,Clouds,dailyrainin,SoftwareType,DateUTC
2013-01-23 00:00:00,53.1,42.0,30.39,West,270,0.0,0.0,66,0.00,,SCT025,0.00,VWS V14.00,2013-01-23 05:00:00,
2013-01-23 00:02:00,52.9,41.8,30.36,West,270,0.0,0.0,66,0.00,,SCT025,0.00,VWS V14.00,2013-01-23 05:02:00,
2013-01-23 00:03:00,52.9,41.8,30.36,West,270,0.0,0.0,66,0.00,,SCT025,0.00,VWS V14.00,2013-01-23 05:03:00,
2013-01-23 00:08:00,52.9,41.8,30.36,West,270,0.0,0.0,66,0.00,,SCT025,0.00,VWS V14.00,2013-01-23 05:08:00,
2013-01-23 00:13:00,52.7,41.7,30.36,West,270,0.0,0.0,66,0.00,,SCT025,0.00,VWS V14.00,2013-01-23 05:13:00,
2013-01-23 00:18:00,52.7,41.7,30.36,West,270,0.0,0.0,66,0.00,,SCT025,0.00,VWS V14.00,2013-01-23 05:18:00,
2013-01-23 00:23:00,52.7,41.7,30.36,West,270,0.0,0.0,66,0.00,,SCT025,0.00,VWS V14.00,2013-01-23 05:23:00,
2013-01-23 00:28:00,52.5,41.5,30.36,West,270,0.0,0.0,66,0.00,,SCT025,0.00,VWS V14.00,2013-01-23 05:28:00,
2013-01-23 00:33:00,52.3,41.3,30.36,West,270,0.0,0.0,66,0.00,,SCT025,0.00,VWS V14.00,2013-01-23 05:33:00,
2013-01-23 00:38:00,52.3,41.3,30.36,West,270,0.0,0.0,66,0.00,,SCT025,0.00,VWS V14.00,2013-01-23 05:38:00,
2013-01-23 00:43:00,52.2,41.2,30.36,West,270,0.0,0.0,66,0.00,,SCT025,0.00,VWS V14.00,2013-01-23 05:43:00,
2013-01-23 00:48:00,52.2,41.2,30.39,West,270,0.0,0.0,66,0.00,,SCT025,0.00,VWS V14.00,2013-01-23 05:48:00,
2013-01-23 00:53:00,52.2,41.2,30.39,West,270,0.0,0.0,66,0.00,,SCT025,0.00,VWS V14.00,2013-01-23 05:53:00,
2013-01-23 00:58:00,52.2,41.2,30.39,West,270,0.0,0.0,66,0.00,,SCT025,0.00,VWS V14.00,2013-01-23 05:58:00,
2013-01-23 01:03:00,52.0,40.6,30.36,West,270,0.0,0.0,65,0.00,,SCT025,0.00,VWS V14.00,2013-01-23 06:03:00,
2013-01-23 01:08:00,52.0,40.6,30.36,West,270,0.0,0.0,65,0.00,,SCT025,0.00,VWS V14.00,2013-01-23 06:08:00,
2013-01-23 01:13:00,52.0,40.6,30.36,West,270,0.0,0.0,65,0.00,,SCT025,0.00,VWS V14.00,2013-01-23 06:13:00,
2013-01-23 01:18:00,52.0,39.8,30.36,West,270,0.0,0.0,63,0.00,,SCT025,0.00,VWS V14.00,2013-01-23 06:18:00,
2013-01-23 01:23:00,52.0,39.8,30.36,West,270,0.0,0.0,63,0.00,,SCT025,0.00,VWS V14.00,2013-01-23 06:23:00,
2013-01-23 01:28:00,52.0,39.8,30.36,West,270,0.0,0.0,63,0.00,,SCT025,0.00,VWS V14.00,2013-01-23 06:28:00,
2013-01-23 01:33:00,52.0,39.4,30.36,West,270,0.0,0.0,62,0.00,,SCT025,0.00,VWS V14.00,2013-01-23 06:33:00,
2013-01-23 01:38:00,52.0,39.4,30.36,West,270,0.0,0.0,62,0.00,,SCT025,0.00,VWS V14.00,2013-01-23 06:38:00,
2013-01-23 01:43:00,51.6,39.0,30.36,West,270,0.0,0.0,62,0.00,,SCT025,0.00,VWS V14.00,2013-01-23 06:43:00,
2013-01-23 01:48:00,51.6,39.0,30.36,West,270,0.0,0.0,62,0.00,,SCT025,0.00,VWS V14.00,2013-01-23 06:48:00,
2013-01-23 01:53:00,51.4,38.9,30.36,West,270,0.0,0.0,62,0.00,,SCT025,0.00,VWS V14.00,2013-01-23 06:53:00,
2013-01-23 01:58:00,51.4,38.9,30.36,West,270,0.0,0.0,62,0.00,,SCT025,0.00,VWS V14.00,2013-01-23 06:58:00,
2013-01-23 02:03:00,51.3,38.7,30.36,West,270,0.0,0.0,62,0.00,,SCT025,0.00,VWS V14.00,2013-01-23 07:03:00,
2013-01-23 02:08:00,51.3,38.7,30.36,West,270,0.0,0.0,62,0.00,,SCT025,0.00,VWS V14.00,2013-01-23 07:08:00,
2013-01-23 02:13:00,51.1,38.1,30.36,WNW,292,0.0,0.0,61,0.00,,SCT025,0.00,VWS V14.00,2013-01-23 07:13:00,
2013-01-23 02:18:00,51.1,38.5,30.36,WNW,292,0.0,0.0,62,0.00,,SCT025,0.00,VWS V14.00,2013-01-23 07:18:00,
2013-01-23 02:23:00,51.1,38.1,30.36,WNW,292,0.0,0.0,61,0.00,,SCT025,0.00,VWS V14.00,2013-01-23 07:23:00,
2013-01-23 02:28:00,51.1,38.1,30.36,WNW,292,0.0,0.0,61,0.00,,SCT025,0.00,VWS V14.00,2013-01-23 07:28:00,
2013-01-23 02:33:00,51.1,37.7,30.33,West,270,0.0,0.0,60,0.00,,SCT025,0.00,VWS V14.00,2013-01-23 07:33:00,
2013-01-23 02:38:00,51.1,37.7,30.33,WNW,292,0.0,0.0,60,0.00,,SCT025,0.00,VWS V14.00,2013-01-23 07:38:00,
2013-01-23 02:43:00,51.3,37.4,30.33,WNW,292,0.0,0.0,59,0.00,,SCT025,0.00,VWS V14.00,2013-01-23 07:43:00,
2013-01-23 02:48:00,51.3,37.0,30.33,WNW,292,0.0,0.0,58,0.00,,SCT025,0.00,VWS V14.00,2013-01-23 07:48:00,
2013-01-23 02:53:00,51.3,36.6,30.33,West,270,0.0,0.0,57,0.00,,SCT025,0.00,VWS V14.00,2013-01-23 07:53:00,
2013-01-23 02:57:00,51.4,36.3,30.33,WNW,292,0.0,0.0,56,0.00,,SCT025,0.00,VWS V14.00,2013-01-23 07:57:00,
2013-01-23 03:02:00,51.4,35.8,30.36,West,270,0.9,0.9,55,0.00,,SCT025,0.00,VWS V14.00,2013-01-23 08:02:00,
2013-01-23 03:07:00,51.4,35.8,30.36,West,270,0.0,0.0,55,0.00,,SCT025,0.00,VWS V14.00,2013-01-23 08:07:00,
2013-01-23 03:13:00,51.4,35.8,30.36,West,270,0.0,0.0,55,0.00,,SCT025,0.00,VWS V14.00,2013-01-23 08:13:00,
2013-01-23 03:18:00,51.6,35.5,30.36,West,270,0.0,0.0,54,0.00,,SCT025,0.00,VWS V14.00,2013-01-23 08:18:00,
2013-01-23 03:23:00,51.6,35.1,30.36,West,270,0.9,0.9,53,0.00,,SCT025,0.00,VWS V14.00,2013-01-23 08:23:00,
2013-01-23 03:28:00,51.6,35.1,30.36,West,270,0.0,0.0,53,0.00,,SCT025,0.00,VWS V14.00,2013-01-23 08:28:00,
2013-01-23 03:33:00,51.6,34.6,91.07,West,270,0.0,0.0,52,0.00,,SCT025,0.00,VWS V14.00,2013-01-23 08:33:00,
2013-01-23 03:38:00,51.6,34.6,30.36,West,270,0.0,0.0,52,0.00,,SCT025,0.00,VWS V14.00,2013-01-23 08:38:00,
2013-01-23 03:43:00,51.6,34.6,30.36,West,270,0.9,0.9,52,0.00,,SCT025,0.00,VWS V14.00,2013-01-23 08:43:00,
2013-01-23 03:47:00,51.6,34.6,30.36,West,270,0.0,0.0,52,0.00,,SCT025,0.00,VWS V14.00,2013-01-23 08:47:00,
2013-01-23 03:52:00,52.0,33.9,30.33,WNW,292,0.0,0.0,50,0.00,,SCT025,0.00,VWS V14.00,2013-01-23 08:52:00,
2013-01-23 03:57:00,52.0,33.9,30.33,WNW,292,2.5,2.5,50,0.00,,SCT025,0.00,VWS V14.00,2013-01-23 08:57:00,
2013-01-23 04:02:00,52.0,33.9,30.33,WNW,292,1.3,1.3,50,0.00,,SCT025,0.00,VWS V14.00,2013-01-23 09:02:00,
2013-01-23 04:07:00,52.2,33.6,30.33,West,270,0.0,0.0,49,0.00,,SCT025,0.00,VWS V14.00,2013-01-23 09:07:00,
2013-01-23 04:12:00,52.2,33.6,30.36,West,270,0.0,0.0,49,0.00,,SCT025,0.00,VWS V14.00,2013-01-23 09:12:00,
2013-01-23 04:18:00,52.2,33.1,30.36,WNW,292,0.0,0.0,48,0.00,,SCT025,0.00,VWS V14.00,2013-01-23 09:18:00,
2013-01-23 04:23:00,52.3,33.2,30.36,WNW,292,2.5,2.5,48,0.00,,SCT025,0.00,VWS V14.00,2013-01-23 09:23:00,
2013-01-23 04:28:00,52.3,33.2,30.36,WNW,292,0.0,0.0,48,0.00,,SCT025,0.00,VWS V14.00,2013-01-23 09:28:00,
2013-01-23 04:33:00,52.3,33.2,30.36,West,270,0.0,0.0,48,0.00,,SCT025,0.00,VWS V14.00,2013-01-23 09:33:00,
2013-01-23 04:38:00,52.3,33.2,30.36,West,270,0.0,0.0,48,0.00,,SCT025,0.00,VWS V14.00,2013-01-23 09:38:00,
2013-01-23 04:42:00,52.2,33.1,30.36,West,270,0.0,0.0,48,0.00,,SCT025,0.00,VWS V14.00,2013-01-23 09:42:00,
2013-01-23 04:48:00,52.0,32.9,30.36,West,270,0.0,0.0,48,0.00,,SCT025,0.00,VWS V14.00,2013-01-23 09:48:00,
2013-01-23 04:52:00,51.8,32.8,30.36,West,270,1.1,1.1,48,0.00,,SCT025,0.00,VWS V14.00,2013-01-23 09:52:00,
2013-01-23 04:57:00,51.6,32.6,30.36,West,270,1.1,1.1,48,0.00,,SCT025,0.00,VWS V14.00,2013-01-23 09:57:00,
2013-01-23 05:02:00,51.6,32.6,30.33,West,270,0.0,0.0,48,0.00,,SCT025,0.00,VWS V14.00,2013-01-23 10:02:00,
2013-01-23 05:07:00,51.4,32.4,30.33,West,270,0.0,0.0,48,0.00,,SCT025,0.00,VWS V14.00,2013-01-23 10:07:00,
2013-01-23 05:12:00,51.4,32.4,30.33,NW,315,2.0,2.0,48,0.00,,SCT025,0.00,VWS V14.00,2013-01-23 10:12:00,
2013-01-23 05:17:00,51.3,32.3,30.36,WNW,292,0.0,0.0,48,0.00,,SCT025,0.00,VWS V14.00,2013-01-23 10:17:00,
2013-01-23 05:22:00,51.1,32.1,30.36,WNW,292,0.9,0.9,48,0.00,,SCT025,0.00,VWS V14.00,2013-01-23 10:22:00,
2013-01-23 05:27:00,51.1,32.1,30.36,West,270,0.9,0.9,48,0.00,,SCT025,0.00,VWS V14.00,2013-01-23 10:27:00,
2013-01-23 05:32:00,51.1,32.1,30.36,WNW,292,0.0,0.0,48,0.00,,SCT025,0.00,VWS V14.00,2013-01-23 10:32:00,
2013-01-23 05:37:00,50.9,31.9,30.36,West,270,0.0,0.0,48,0.00,,SCT025,0.00,VWS V14.00,2013-01-23 10:37:00,
2013-01-23 05:42:00,50.9,31.9,30.36,West,270,0.0,0.0,48,0.00,,SCT025,0.00,VWS V14.00,2013-01-23 10:42:00,
2013-01-23 05:47:00,50.9,31.9,30.39,WNW,292,0.0,0.0,48,0.00,,SCT025,0.00,VWS V14.00,2013-01-23 10:47:00,
2013-01-23 05:52:00,50.9,31.4,30.39,WNW,292,0.0,0.0,47,0.00,,SCT025,0.00,VWS V14.00,2013-01-23 10:52:00,
2013-01-23 05:57:00,50.7,31.2,30.39,West,270,0.0,0.0,47,0.00,,SCT025,0.00,VWS V14.00,2013-01-23 10:57:00,
2013-01-23 06:02:00,50.7,31.2,30.39,West,270,0.0,0.0,47,0.00,,SCT025,0.00,VWS V14.00,2013-01-23 11:02:00,
2013-01-23 06:07:00,50.7,31.2,30.39,WNW,292,2.2,2.2,47,0.00,,SCT025,0.00,VWS V14.00,2013-01-23 11:07:00,
2013-01-23 06:12:00,50.7,31.2,30.39,WNW,292,0.9,0.9,47,0.00,,SCT025,0.00,VWS V14.00,2013-01-23 11:12:00,
2013-01-23 06:17:00,50.5,31.1,30.39,West,270,2.2,2.2,47,0.00,,SCT025,0.00,VWS V14.00,2013-01-23 11:17:00,
2013-01-23 06:22:00,50.5,31.1,30.39,West,270,0.0,0.0,47,0.00,,SCT025,0.00,VWS V14.00,2013-01-23 11:22:00,
2013-01-23 06:28:00,50.5,31.1,30.39,West,270,0.0,0.0,47,0.00,,SCT025,0.00,VWS V14.00,2013-01-23 11:28:00,
2013-01-23 06:33:00,50.5,31.1,30.41,West,270,0.0,0.0,47,0.00,,SCT025,0.00,VWS V14.00,2013-01-23 11:33:00,
2013-01-23 06:38:00,50.5,31.6,30.41,WNW,292,0.0,0.0,48,0.00,,SCT025,0.00,VWS V14.00,2013-01-23 11:38:00,
2013-01-23 06:43:00,50.5,31.6,30.41,WNW,292,0.0,0.0,48,0.00,,SCT025,0.00,VWS V14.00,2013-01-23 11:43:00,
2013-01-23 06:48:00,50.5,31.6,30.41,West,270,0.0,0.0,48,0.00,,SCT025,0.00,VWS V14.00,2013-01-23 11:48:00,
2013-01-23 06:53:00,50.4,31.4,30.41,NW,315,0.0,0.0,48,0.00,,SCT025,0.00,VWS V14.00,2013-01-23 11:53:00,
2013-01-23 06:58:00,50.4,31.4,30.41,WNW,292,0.0,0.0,48,0.00,,SCT025,0.00,VWS V14.00,2013-01-23 11:58:00,
2013-01-23 07:03:00,50.4,31.9,30.41,West,270,0.0,0.0,49,0.00,,SCT025,0.00,VWS V14.00,2013-01-23 12:03:00,
2013-01-23 07:08:00,50.4,31.9,30.41,West,270,0.0,0.0,49,0.00,,SCT025,0.00,VWS V14.00,2013-01-23 12:08:00,
2013-01-23 07:13:00,50.4,32.4,30.41,West,270,0.0,0.0,50,0.00,,SCT025,0.00,VWS V14.00,2013-01-23 12:13:00,
2013-01-23 07:18:00,50.4,32.9,30.41,West,270,1.1,1.1,51,0.00,,SCT025,0.00,VWS V14.00,2013-01-23 12:18:00,
2013-01-23 07:23:00,50.4,32.9,30.41,NW,315,0.9,0.9,51,0.00,,SCT025,0.00,VWS V14.00,2013-01-23 12:23:00,
2013-01-23 07:28:00,50.4,32.9,30.41,West,270,0.0,0.0,51,0.00,,SCT025,0.00,VWS V14.00,2013-01-23 12:28:00,
2013-01-23 07:33:00,50.4,33.4,30.41,West,270,0.0,0.0,52,0.00,,SCT025,0.00,VWS V14.00,2013-01-23 12:33:00,
2013-01-23 07:38:00,50.5,33.6,30.41,WNW,292,0.0,0.0,52,0.00,,SCT025,0.00,VWS V14.00,2013-01-23 12:38:00,
2013-01-23 07:43:00,50.7,34.2,91.07,WNW,292,0.0,0.0,53,0.00,,SCT025,0.00,VWS V14.00,2013-01-23 12:43:00,
2013-01-23 07:48:00,50.7,34.2,30.41,WNW,292,0.0,0.0,53,0.00,,SCT025,0.00,VWS V14.00,2013-01-23 12:48:00,
2013-01-23 07:53:00,51.1,35.0,30.41,WNW,292,0.0,0.0,54,0.00,,SCT025,0.00,VWS V14.00,2013-01-23 12:53:00,
2013-01-23 07:58:00,51.3,35.2,30.41,North,0,2.9,2.9,54,0.00,,SCT025,0.00,VWS V14.00,2013-01-23 12:58:00,
2013-01-23 08:03:00,51.3,35.2,30.41,WNW,292,0.0,0.0,54,0.00,,SCT025,0.00,VWS V14.00,2013-01-23 13:03:00,
2013-01-23 08:08:00,52.2,36.5,30.41,WNW,292,0.0,0.0,55,0.00,,SCT025,0.00,VWS V14.00,2013-01-23 13:08:00,
2013-01-23 08:13:00,54.0,37.2,30.41,WNW,292,1.1,1.1,53,0.00,,SCT025,0.00,VWS V14.00,2013-01-23 13:13:00,
2013-01-23 08:18:00,55.4,37.6,30.41,WNW,292,0.0,0.0,51,0.00,,SCT025,0.00,VWS V14.00,2013-01-23 13:18:00,
2013-01-23 08:23:00,56.5,38.1,30.41,WNW,292,0.9,0.9,50,0.00,,SCT025,0.00,VWS V14.00,2013-01-23 13:23:00,
2013-01-23 08:28:00,56.5,38.1,30.41,WNW,292,0.0,0.0,50,0.00,,SCT025,0.00,VWS V14.00,2013-01-23 13:28:00,
2013-01-23 08:33:00,58.8,38.1,30.41,NW,315,2.9,2.9,46,0.00,,SCT025,0.00,VWS V14.00,2013-01-23 13:33:00,
2013-01-23 08:38:00,59.2,38.4,30.41,WNW,292,0.0,0.0,46,0.00,,SCT025,0.00,VWS V14.00,2013-01-23 13:38:00,
2013-01-23 08:43:00,60.1,38.1,30.41,WNW,292,1.1,1.1,44,0.00,,SCT025,0.00,VWS V14.00,2013-01-23 13:43:00,
2013-01-23 08:48:00,60.1,38.1,30.39,WNW,292,0.0,0.0,44,0.00,,SCT025,0.00,VWS V14.00,2013-01-23 13:48:00,
2013-01-23 08:53:00,63.3,39.2,30.39,West,270,1.3,1.3,41,0.00,,SCT025,0.00,VWS V14.00,2013-01-23 13:53:00,
2013-01-23 08:58:00,64.0,38.6,30.39,WSW,248,1.6,1.6,39,0.00,,SCT025,0.00,VWS V14.00,2013-01-23 13:58:00,
2013-01-23 09:03:00,64.0,38.6,30.41,West,270,0.0,0.0,39,0.00,,SCT025,0.00,VWS V14.00,2013-01-23 14:03:00,
2013-01-23 09:08:00,64.0,38.6,30.41,WSW,248,1.1,1.1,39,0.00,,SCT025,0.00,VWS V14.00,2013-01-23 14:08:00,
2013-01-23 09:13:00,64.4,38.3,30.41,West,270,2.5,2.5,38,0.00,,SCT025,0.00,VWS V14.00,2013-01-23 14:13:00,
2013-01-23 09:18:00,64.4,38.3,30.41,West,270,1.3,1.3,38,0.00,,SCT025,0.00,VWS V14.00,2013-01-23 14:18:00,
2013-01-23 09:23:00,64.4,38.3,30.41,NE,45,0.9,0.9,38,0.00,,SCT025,0.00,VWS V14.00,2013-01-23 14:23:00,
2013-01-23 09:28:00,65.1,38.9,30.41,WSW,248,0.0,0.0,38,0.00,,SCT025,0.00,VWS V14.00,2013-01-23 14:28:00,
2013-01-23 09:33:00,65.5,40.5,30.41,West,270,0.0,0.0,40,0.00,,SCT025,0.00,VWS V14.00,2013-01-23 14:33:00,
2013-01-23 09:38:00,65.8,39.5,30.41,WNW,292,0.0,0.0,38,0.00,,SCT025,0.00,VWS V14.00,2013-01-23 14:38:00,
2013-01-23 09:43:00,66.0,39.7,30.41,WSW,248,1.3,1.3,38,0.00,,SCT025,0.00,VWS V14.00,2013-01-23 14:43:00,
2013-01-23 09:48:00,66.0,40.4,30.44,East,90,0.9,0.9,39,0.00,,SCT025,0.00,VWS V14.00,2013-01-23 14:48:00,
2013-01-23 09:53:00,66.0,39.7,30.44,NW,315,3.4,3.4,38,0.00,,SCT025,0.00,VWS V14.00,2013-01-23 14:53:00,
2013-01-23 09:58:00,66.4,40.7,30.44,NW,315,5.4,5.4,39,0.00,,SCT025,0.00,VWS V14.00,2013-01-23 14:58:00,
2013-01-23 10:02:00,66.4,39.3,30.44,WSW,248,1.3,1.3,37,0.00,,SCT025,0.00,VWS V14.00,2013-01-23 15:02:00,
2013-01-23 10:07:00,66.6,40.2,30.44,SSW,202,2.9,2.9,38,0.00,,SCT025,0.00,VWS V14.00,2013-01-23 15:07:00,
2013-01-23 10:12:00,66.4,39.3,30.44,WNW,292,0.0,0.0,37,0.00,,SCT025,0.00,VWS V14.00,2013-01-23 15:12:00,
2013-01-23 10:17:00,66.4,39.3,30.44,WNW,292,4.9,4.9,37,0.00,,SCT025,0.00,VWS V14.00,2013-01-23 15:17:00,
2013-01-23 10:22:00,66.6,40.2,30.44,NNW,338,3.4,3.4,38,0.00,,SCT025,0.00,VWS V14.00,2013-01-23 15:22:00,
2013-01-23 10:27:00,66.4,40.0,30.44,WNW,292,0.9,0.9,38,0.00,,SCT025,0.00,VWS V14.00,2013-01-23 15:27:00,
2013-01-23 10:32:00,66.2,40.5,30.44,WNW,292,0.0,0.0,39,0.00,,SCT025,0.00,VWS V14.00,2013-01-23 15:32:00,
2013-01-23 10:37:00,66.4,42.0,30.44,SSE,158,4.0,4.0,41,0.00,,SCT025,0.00,VWS V14.00,2013-01-23 15:37:00,
2013-01-23 10:42:00,66.6,42.2,30.44,North,0,2.9,2.9,41,0.00,,SCT025,0.00,VWS V14.00,2013-01-23 15:42:00,
2013-01-23 10:47:00,66.6,41.5,30.44,NNE,22,1.6,1.6,40,0.00,,SCT025,0.00,VWS V14.00,2013-01-23 15:47:00,
2013-01-23 10:52:00,66.6,42.2,30.44,North,0,2.9,2.9,41,0.00,,SCT025,0.00,VWS V14.00,2013-01-23 15:52:00,
2013-01-23 10:57:00,66.6,41.5,30.44,North,0,4.0,4.0,40,0.00,,SCT025,0.00,VWS V14.00,2013-01-23 15:57:00,
2013-01-23 11:02:00,66.6,42.2,30.44,North,0,1.6,1.6,41,0.00,,SCT025,0.00,VWS V14.00,2013-01-23 16:02:00,
2013-01-23 11:07:00,66.7,42.3,30.44,NNW,338,2.9,2.9,41,0.00,,SCT025,0.00,VWS V14.00,2013-01-23 16:07:00,
2013-01-23 11:12:00,66.6,42.2,30.44,WNW,292,2.0,2.0,41,0.00,,SCT025,0.00,VWS V14.00,2013-01-23 16:12:00,
2013-01-23 11:17:00,66.6,41.5,30.44,SSW,202,3.1,3.1,40,0.00,,SCT025,0.00,VWS V14.00,2013-01-23 16:17:00,
2013-01-23 11:22:00,66.9,43.1,30.44,NNE,22,1.3,1.3,42,0.00,,SCT025,0.00,VWS V14.00,2013-01-23 16:22:00,
2013-01-23 11:27:00,66.9,43.1,30.44,SW,225,1.1,1.1,42,0.00,,SCT025,0.00,VWS V14.00,2013-01-23 16:27:00,
2013-01-23 11:32:00,66.9,43.1,30.44,ENE,68,2.0,2.0,42,0.00,,SCT025,0.00,VWS V14.00,2013-01-23 16:32:00,
2013-01-23 11:37:00,66.9,43.1,30.44,ENE,68,2.7,2.7,42,0.00,,SCT025,0.00,VWS V14.00,2013-01-23 16:37:00,
2013-01-23 11:42:00,66.9,43.1,30.44,ENE,68,2.9,2.9,42,0.00,,SCT025,0.00,VWS V14.00,2013-01-23 16:42:00,
2013-01-23 11:47:00,67.6,43.1,30.44,NW,315,4.0,4.0,41,0.00,,SCT025,0.00,VWS V14.00,2013-01-23 16:47:00,
2013-01-23 11:52:00,68.0,42.8,30.44,NNW,338,0.9,0.9,40,30.84,,SCT025,30.84,VWS V14.00,2013-01-23 16:52:00,
2013-01-23 11:57:00,68.4,43.8,30.44,North,0,1.6,1.6,41,0.00,,SCT025,0.00,VWS V14.00,2013-01-23 16:57:00,
2013-01-23 12:02:00,68.2,43.0,30.44,WNW,292,5.6,5.6,40,0.00,,SCT025,0.00,VWS V14.00,2013-01-23 17:02:00,
2013-01-23 12:07:00,67.8,43.3,30.44,WSW,248,2.7,2.7,41,0.00,,SCT025,0.00,VWS V14.00,2013-01-23 17:07:00,
2013-01-23 12:12:00,68.0,43.5,30.44,SE,135,1.1,1.1,41,0.00,,SCT025,0.00,VWS V14.00,2013-01-23 17:12:00,
2013-01-23 12:17:00,68.0,44.7,30.41,NNW,338,2.7,2.7,43,0.00,,SCT025,0.00,VWS V14.00,2013-01-23 17:17:00,
2013-01-23 12:22:00,68.0,44.1,30.41,NNE,22,3.8,3.8,42,0.00,,SCT025,0.00,VWS V14.00,2013-01-23 17:22:00,
2013-01-23 12:27:00,68.2,44.2,30.41,SE,135,1.3,1.3,42,0.00,,SCT025,0.00,VWS V14.00,2013-01-23 17:27:00,
2013-01-23 12:32:00,68.2,44.9,30.41,SE,135,3.6,3.6,43,0.00,,SCT025,0.00,VWS V14.00,2013-01-23 17:32:00,
2013-01-23 12:37:00,68.0,44.1,30.41,NW,315,2.5,2.5,42,0.00,,SCT025,0.00,VWS V14.00,2013-01-23 17:37:00,
2013-01-23 12:42:00,68.2,43.6,30.41,ENE,68,1.6,1.6,41,0.00,,SCT025,0.00,VWS V14.00,2013-01-23 17:42:00,
2013-01-23 12:47:00,68.4,44.4,30.41,NW,315,2.5,2.5,42,0.00,,SCT025,0.00,VWS V14.00,2013-01-23 17:47:00,
2013-01-23 12:52:00,68.4,44.4,30.41,West,270,1.3,1.3,42,0.00,,SCT025,0.00,VWS V14.00,2013-01-23 17:52:00,
2013-01-23 12:57:00,68.4,44.4,30.41,ENE,68,1.1,1.1,42,0.00,,SCT025,0.00,VWS V14.00,2013-01-23 17:57:00,
2013-01-23 13:02:00,68.7,42.1,30.39,NNE,22,5.8,5.8,38,0.00,,SCT025,0.00,VWS V14.00,2013-01-23 18:02:00,
2013-01-23 13:07:00,68.7,42.1,30.39,NE,45,3.4,3.4,38,0.00,,SCT025,0.00,VWS V14.00,2013-01-23 18:07:00,
2013-01-23 13:12:00,68.7,41.4,30.39,NE,45,3.4,3.4,37,0.00,,SCT025,0.00,VWS V14.00,2013-01-23 18:12:00,
2013-01-23 13:17:00,68.5,40.5,30.41,NNE,22,4.3,4.3,36,0.00,,SCT025,0.00,VWS V14.00,2013-01-23 18:17:00,
2013-01-23 13:22:00,68.5,40.5,30.41,NNW,338,2.0,2.0,36,0.00,,SCT025,0.00,VWS V14.00,2013-01-23 18:22:00,
2013-01-23 13:27:00,68.5,40.5,30.41,NE,45,5.8,5.8,36,0.00,,SCT025,0.00,VWS V14.00,2013-01-23 18:27:00,
2013-01-23 13:32:00,68.4,41.1,30.41,NE,45,2.9,2.9,37,0.00,,SCT025,0.00,VWS V14.00,2013-01-23 18:32:00,
2013-01-23 13:37:00,68.4,41.8,30.41,NNW,338,2.5,2.5,38,0.00,,SCT025,0.00,VWS V14.00,2013-01-23 18:37:00,
2013-01-23 13:42:00,68.2,42.3,30.41,NNE,22,2.7,2.7,39,0.00,,SCT025,0.00,VWS V14.00,2013-01-23 18:42:00,
2013-01-23 13:47:00,67.8,42.0,30.41,NE,45,4.3,4.3,39,0.00,,SCT025,0.00,VWS V14.00,2013-01-23 18:47:00,
2013-01-23 13:52:00,68.0,42.8,30.41,NNE,22,1.3,1.3,40,0.00,,SCT025,0.00,VWS V14.00,2013-01-23 18:52:00,
2013-01-23 13:57:00,68.0,42.8,30.41,North,0,4.0,4.0,40,0.00,,SCT025,0.00,VWS V14.00,2013-01-23 18:57:00,
2013-01-23 14:02:00,68.0,42.8,30.41,North,0,4.3,4.3,40,0.00,,SCT025,0.00,VWS V14.00,2013-01-23 19:02:00,
2013-01-23 14:07:00,67.5,41.7,30.41,NNE,22,2.9,2.9,39,0.00,,SCT025,0.00,VWS V14.00,2013-01-23 19:07:00,
2013-01-23 14:12:00,67.5,41.7,30.41,East,90,8.7,8.7,39,0.00,,SCT025,0.00,VWS V14.00,2013-01-23 19:12:00,
2013-01-23 14:17:00,67.5,41.7,30.39,ESE,112,2.0,2.0,39,0.00,,SCT025,0.00,VWS V14.00,2013-01-23 19:17:00,
2013-01-23 14:22:00,67.8,42.0,30.39,ENE,68,3.4,3.4,39,0.00,,SCT025,0.00,VWS V14.00,2013-01-23 19:22:00,
2013-01-23 14:27:00,68.0,42.1,30.39,ENE,68,1.3,1.3,39,0.00,,SCT025,0.00,VWS V14.00,2013-01-23 19:27:00,
2013-01-23 14:32:00,68.2,41.6,30.39,ENE,68,3.6,3.6,38,0.00,,SCT025,0.00,VWS V14.00,2013-01-23 19:32:00,
2013-01-23 14:37:00,67.3,40.8,30.39,North,0,5.4,5.4,38,0.00,,SCT025,0.00,VWS V14.00,2013-01-23 19:37:00,
2013-01-23 14:42:00,67.8,43.3,30.39,West,270,3.1,3.1,41,0.00,,SCT025,0.00,VWS V14.00,2013-01-23 19:42:00,
2013-01-23 14:47:00,67.5,41.0,30.39,ENE,68,5.4,5.4,38,0.00,,SCT025,0.00,VWS V14.00,2013-01-23 19:47:00,
2013-01-23 14:52:00,67.1,40.7,30.39,NE,45,2.0,2.0,38,0.00,,SCT025,0.00,VWS V14.00,2013-01-23 19:52:00,
2013-01-23 14:57:00,67.1,41.3,30.39,NE,45,7.6,7.6,39,0.00,,SCT025,0.00,VWS V14.00,2013-01-23 19:57:00,
2013-01-23 15:02:00,67.1,41.3,30.39,NNE,22,3.1,3.1,39,0.00,,SCT025,0.00,VWS V14.00,2013-01-23 20:02:00,
2013-01-23 15:07:00,66.7,40.3,30.39,NNE,22,3.4,3.4,38,0.00,,SCT025,0.00,VWS V14.00,2013-01-23 20:07:00,
2013-01-23 15:12:00,66.4,40.0,30.39,ENE,68,5.8,5.8,38,0.00,,SCT025,0.00,VWS V14.00,2013-01-23 20:12:00,
2013-01-23 15:17:00,66.4,40.0,30.41,North,0,6.5,6.5,38,0.00,,SCT025,0.00,VWS V14.00,2013-01-23 20:17:00,
2013-01-23 15:22:00,66.6,41.5,30.41,NE,45,7.4,7.4,40,0.00,,SCT025,0.00,VWS V14.00,2013-01-23 20:22:00,
2013-01-23 15:27:00,66.4,41.3,30.41,ENE,68,5.4,5.4,40,0.00,,SCT025,0.00,VWS V14.00,2013-01-23 20:27:00,
2013-01-23 15:32:00,66.4,40.7,30.39,ENE,68,2.7,2.7,39,0.00,,SCT025,0.00,VWS V14.00,2013-01-23 20:32:00,
2013-01-23 15:37:00,66.0,39.7,30.39,North,0,3.4,3.4,38,0.00,,SCT025,0.00,VWS V14.00,2013-01-23 20:37:00,
2013-01-23 15:42:00,66.0,40.4,30.39,North,0,2.5,2.5,39,0.00,,SCT025,0.00,VWS V14.00,2013-01-23 20:42:00,
2013-01-23 15:47:00,66.0,40.4,30.39,NE,45,6.0,6.0,39,0.00,,SCT025,0.00,VWS V14.00,2013-01-23 20:47:00,
2013-01-23 15:52:00,66.0,39.0,30.39,ENE,68,4.7,4.7,37,0.00,,SCT025,0.00,VWS V14.00,2013-01-23 20:52:00,
2013-01-23 15:57:00,66.0,40.4,30.39,NE,45,1.1,1.1,39,0.00,,SCT025,0.00,VWS V14.00,2013-01-23 20:57:00,
2013-01-23 16:02:00,66.0,39.0,30.41,NNE,22,2.7,2.7,37,0.00,,SCT025,0.00,VWS V14.00,2013-01-23 21:02:00,
2013-01-23 16:07:00,66.0,39.7,30.41,NNW,338,4.3,4.3,38,0.00,,SCT025,0.00,VWS V14.00,2013-01-23 21:07:00,
2013-01-23 16:12:00,65.7,39.4,30.41,ENE,68,7.4,7.4,38,0.00,,SCT025,0.00,VWS V14.00,2013-01-23 21:12:00,
2013-01-23 16:17:00,65.3,39.7,30.41,NNE,22,3.1,3.1,39,0.00,,SCT025,0.00,VWS V14.00,2013-01-23 21:17:00,
2013-01-23 16:22:00,65.1,39.6,30.41,NNE,22,3.8,3.8,39,0.00,,SCT025,0.00,VWS V14.00,2013-01-23 21:22:00,
2013-01-23 16:27:00,65.1,40.9,30.41,NNE,22,4.7,4.7,41,0.00,,SCT025,0.00,VWS V14.00,2013-01-23 21:27:00,
2013-01-23 16:32:00,64.9,40.7,30.41,NE,45,3.6,3.6,41,0.00,,SCT025,0.00,VWS V14.00,2013-01-23 21:32:00,
2013-01-23 16:37:00,64.9,41.3,30.41,NNE,22,7.8,7.8,42,0.00,,SCT025,0.00,VWS V14.00,2013-01-23 21:37:00,
2013-01-23 16:42:00,64.8,41.8,30.41,NNE,22,2.0,2.0,43,0.00,,SCT025,0.00,VWS V14.00,2013-01-23 21:42:00,
2013-01-23 16:47:00,64.6,41.6,30.41,NW,315,2.9,2.9,43,0.00,,SCT025,0.00,VWS V14.00,2013-01-23 21:47:00,
2013-01-23 16:52:00,64.4,42.0,30.41,ESE,112,0.9,0.9,44,0.00,,SCT025,0.00,VWS V14.00,2013-01-23 21:52:00,
2013-01-23 16:57:00,64.4,42.0,30.41,NNW,338,0.0,0.0,44,0.00,,SCT025,0.00,VWS V14.00,2013-01-23 21:57:00,
2013-01-23 17:02:00,64.2,41.9,30.41,NNE,22,3.8,3.8,44,0.00,,SCT025,0.00,VWS V14.00,2013-01-23 22:02:00,
2013-01-23 17:07:00,63.9,41.5,30.41,NE,45,4.9,4.9,44,0.00,,SCT025,0.00,VWS V14.00,2013-01-23 22:07:00,
2013-01-23 17:12:00,63.5,41.8,30.41,NNE,22,1.6,1.6,45,0.00,,SCT025,0.00,VWS V14.00,2013-01-23 22:12:00,
2013-01-23 17:17:00,63.1,41.5,30.41,North,0,0.9,0.9,45,0.00,,SCT025,0.00,VWS V14.00,2013-01-23 22:17:00,
2013-01-23 17:22:00,63.1,41.5,30.41,ENE,68,0.9,0.9,45,0.00,,SCT025,0.00,VWS V14.00,2013-01-23 22:22:00,
2013-01-23 17:27:00,62.8,41.7,30.41,ENE,68,3.8,3.8,46,0.00,,SCT025,0.00,VWS V14.00,2013-01-23 22:27:00,
2013-01-23 17:32:00,62.6,41.5,30.41,NNE,22,2.0,2.0,46,0.00,,SCT025,0.00,VWS V14.00,2013-01-23 22:32:00,
2013-01-23 17:37:00,62.2,41.8,30.41,NE,45,1.1,1.1,47,0.00,,SCT025,0.00,VWS V14.00,2013-01-23 22:37:00,
2013-01-23 17:42:00,61.9,42.0,30.41,East,90,2.5,2.5,48,0.00,,SCT025,0.00,VWS V14.00,2013-01-23 22:42:00,
2013-01-23 17:47:00,61.9,42.0,30.41,NNE,22,2.5,2.5,48,0.00,,SCT025,0.00,VWS V14.00,2013-01-23 22:47:00,
2013-01-23 17:52:00,61.7,41.8,30.41,West,270,0.0,0.0,48,0.00,,SCT025,0.00,VWS V14.00,2013-01-23 22:52:00,
2013-01-23 17:57:00,61.3,41.5,30.41,NNE,22,3.1,3.1,48,0.00,,SCT025,0.00,VWS V14.00,2013-01-23 22:57:00,
2013-01-23 18:02:00,61.2,41.9,30.41,ENE,68,3.4,3.4,49,0.00,,SCT025,0.00,VWS V14.00,2013-01-23 23:02:00,
2013-01-23 18:07:00,60.8,41.5,30.41,North,0,1.1,1.1,49,0.00,,SCT025,0.00,VWS V14.00,2013-01-23 23:07:00,
2013-01-23 18:12:00,60.6,41.9,30.41,NNW,338,0.0,0.0,50,0.00,,SCT025,0.00,VWS V14.00,2013-01-23 23:12:00,
2013-01-23 18:17:00,60.4,41.7,30.41,NNE,22,2.7,2.7,50,0.00,,SCT025,0.00,VWS V14.00,2013-01-23 23:17:00,
2013-01-23 18:22:00,60.1,42.4,30.41,WNW,292,0.0,0.0,52,0.00,,SCT025,0.00,VWS V14.00,2013-01-23 23:22:00,
2013-01-23 18:27:00,60.1,41.9,30.41,NE,45,0.9,0.9,51,0.00,,SCT025,0.00,VWS V14.00,2013-01-23 23:27:00,
2013-01-23 18:32:00,60.1,42.4,30.41,NNW,338,0.0,0.0,52,0.00,,SCT025,0.00,VWS V14.00,2013-01-23 23:32:00,
2013-01-23 18:37:00,59.7,42.6,30.41,WSW,248,0.0,0.0,53,0.00,,SCT025,0.00,VWS V14.00,2013-01-23 23:37:00,
2013-01-23 18:42:00,59.7,42.6,30.41,West,270,0.0,0.0,53,0.00,,SCT025,0.00,VWS V14.00,2013-01-23 23:42:00,
2013-01-23 18:47:00,59.7,42.6,30.41,West,270,0.0,0.0,53,0.00,,SCT025,0.00,VWS V14.00,2013-01-23 23:47:00,
2013-01-23 18:52:00,59.7,42.6,30.39,WNW,292,0.0,0.0,53,0.00,,SCT025,0.00,VWS V14.00,2013-01-23 23:52:00,
2013-01-23 18:57:00,59.7,42.6,30.39,WNW,292,0.0,0.0,53,0.00,,SCT025,0.00,VWS V14.00,2013-01-23 23:57:00,
2013-01-23 19:02:00,59.0,42.4,30.41,West,270,0.0,0.0,54,0.00,,SCT025,0.00,VWS V14.00,2013-01-24 00:02:00,
2013-01-23 19:07:00,58.8,42.7,30.41,West,270,0.0,0.0,55,0.00,,SCT025,0.00,VWS V14.00,2013-01-24 00:07:00,
2013-01-23 19:12:00,58.6,42.5,91.07,West,270,0.0,0.0,55,0.00,,SCT025,0.00,VWS V14.00,2013-01-24 00:12:00,
2013-01-23 19:16:00,58.6,43.0,30.41,West,270,0.0,0.0,56,0.00,,SCT025,0.00,VWS V14.00,2013-01-24 00:16:00,
2013-01-23 19:21:00,58.5,42.8,30.41,West,270,0.0,0.0,56,0.00,,SCT025,0.00,VWS V14.00,2013-01-24 00:21:00,
2013-01-23 19:26:00,58.3,43.1,30.41,West,270,0.0,0.0,57,0.00,,SCT025,0.00,VWS V14.00,2013-01-24 00:26:00,
2013-01-23 19:31:00,70.2,47.8,30.41,West,270,0.0,0.0,45,0.00,,SCT025,0.00,VWS V14.00,2013-01-24 00:31:00,
2013-01-23 19:36:00,70.2,47.8,30.41,West,270,0.0,0.0,45,0.00,,SCT025,0.00,VWS V14.00,2013-01-24 00:36:00,
2013-01-23 19:41:00,57.9,43.7,30.41,West,270,0.0,0.0,59,0.00,,SCT025,0.00,VWS V14.00,2013-01-24 00:41:00,
2013-01-23 19:46:00,57.9,43.7,30.41,West,270,0.0,0.0,59,0.00,,SCT025,0.00,VWS V14.00,2013-01-24 00:46:00,
2013-01-23 19:51:00,57.7,43.5,30.41,West,270,0.0,0.0,59,0.00,,SCT025,0.00,VWS V14.00,2013-01-24 00:51:00,
2013-01-23 19:56:00,57.6,43.8,30.41,West,270,0.0,0.0,60,0.00,,SCT025,0.00,VWS V14.00,2013-01-24 00:56:00,
2013-01-23 20:01:00,57.4,43.6,30.41,West,270,0.0,0.0,60,0.00,,SCT025,0.00,VWS V14.00,2013-01-24 01:01:00,
2013-01-23 20:06:00,57.4,43.6,30.41,West,270,0.0,0.0,60,0.00,,SCT025,0.00,VWS V14.00,2013-01-24 01:06:00,
2013-01-23 20:11:00,57.2,43.9,30.41,West,270,0.0,0.0,61,0.00,,SCT025,0.00,VWS V14.00,2013-01-24 01:11:00,
2013-01-23 20:16:00,57.0,44.6,30.41,West,270,0.0,0.0,63,0.00,,SCT025,0.00,VWS V14.00,2013-01-24 01:16:00,
2013-01-23 20:21:00,56.7,44.6,30.39,West,270,0.0,0.0,64,0.00,,SCT025,0.00,VWS V14.00,2013-01-24 01:21:00,
2013-01-23 20:26:00,56.7,44.6,30.39,West,270,0.0,0.0,64,0.00,,SCT025,0.00,VWS V14.00,2013-01-24 01:26:00,
2013-01-23 20:31:00,56.1,44.9,30.41,West,270,0.0,0.0,66,0.00,,SCT025,0.00,VWS V14.00,2013-01-24 01:31:00,
2013-01-23 20:36:00,55.9,44.8,30.41,West,270,0.0,0.0,66,0.00,,SCT025,0.00,VWS V14.00,2013-01-24 01:36:00,
2013-01-23 20:41:00,55.8,44.6,30.41,West,270,0.0,0.0,66,0.00,,SCT025,0.00,VWS V14.00,2013-01-24 01:41:00,
2013-01-23 20:46:00,55.6,44.4,30.41,West,270,0.0,0.0,66,0.00,,SCT025,0.00,VWS V14.00,2013-01-24 01:46:00,
2013-01-23 20:51:00,55.4,44.6,30.41,West,270,0.0,0.0,67,0.00,,SCT025,0.00,VWS V14.00,2013-01-24 01:51:00,
2013-01-23 20:56:00,55.0,44.7,30.41,West,270,0.0,0.0,68,0.00,,SCT025,0.00,VWS V14.00,2013-01-24 01:56:00,
2013-01-23 21:01:00,54.7,44.7,30.41,West,270,0.0,0.0,69,0.00,,SCT025,0.00,VWS V14.00,2013-01-24 02:01:00,
2013-01-23 21:06:00,54.5,44.5,30.41,West,270,0.0,0.0,69,0.00,,SCT025,0.00,VWS V14.00,2013-01-24 02:06:00,
2013-01-23 21:11:00,54.5,44.5,30.41,West,270,0.0,0.0,69,0.00,,SCT025,0.00,VWS V14.00,2013-01-24 02:11:00,
2013-01-23 21:16:00,54.3,45.1,30.41,West,270,0.0,0.0,71,0.00,,SCT025,0.00,VWS V14.00,2013-01-24 02:16:00,
2013-01-23 21:21:00,54.0,44.8,30.41,West,270,0.0,0.0,71,0.00,,SCT025,0.00,VWS V14.00,2013-01-24 02:21:00,
2013-01-23 21:26:00,53.8,44.6,30.41,West,270,0.0,0.0,71,0.00,,SCT025,0.00,VWS V14.00,2013-01-24 02:26:00,
2013-01-23 21:31:00,53.6,44.8,30.41,West,270,0.0,0.0,72,0.00,,SCT025,0.00,VWS V14.00,2013-01-24 02:31:00,
2013-01-23 21:36:00,53.2,44.5,30.41,West,270,0.0,0.0,72,0.00,,SCT025,0.00,VWS V14.00,2013-01-24 02:36:00,
2013-01-23 21:41:00,53.1,44.7,30.41,West,270,0.0,0.0,73,0.00,,SCT025,0.00,VWS V14.00,2013-01-24 02:41:00,
2013-01-23 21:46:00,52.9,44.5,30.41,West,270,0.0,0.0,73,0.00,,SCT025,0.00,VWS V14.00,2013-01-24 02:46:00,
2013-01-23 21:51:00,52.5,44.5,30.41,West,270,0.0,0.0,74,0.00,,SCT025,0.00,VWS V14.00,2013-01-24 02:51:00,
2013-01-23 21:56:00,52.2,44.5,30.41,West,270,0.0,0.0,75,0.00,,SCT025,0.00,VWS V14.00,2013-01-24 02:56:00,
2013-01-23 22:01:00,51.8,44.1,30.39,West,270,0.0,0.0,75,0.00,,SCT025,0.00,VWS V14.00,2013-01-24 03:01:00,
2013-01-23 22:06:00,51.6,44.3,30.39,West,270,0.0,0.0,76,0.00,,SCT025,0.00,VWS V14.00,2013-01-24 03:06:00,
2013-01-23 22:11:00,51.6,44.7,30.39,West,270,0.0,0.0,77,0.00,,SCT025,0.00,VWS V14.00,2013-01-24 03:11:00,
2013-01-23 22:16:00,51.6,44.7,30.39,WNW,292,0.0,0.0,77,0.00,,SCT025,0.00,VWS V14.00,2013-01-24 03:16:00,
2013-01-23 22:21:00,51.4,45.2,30.39,NW,315,0.0,0.0,79,0.00,,SCT025,0.00,VWS V14.00,2013-01-24 03:21:00,
2013-01-23 22:26:00,51.4,45.2,30.39,NW,315,0.0,0.0,79,0.00,,SCT025,0.00,VWS V14.00,2013-01-24 03:26:00,
2013-01-23 22:31:00,51.1,45.1,30.41,West,270,0.0,0.0,80,0.00,,SCT025,0.00,VWS V14.00,2013-01-24 03:31:00,
2013-01-23 22:36:00,50.7,44.5,30.41,West,270,0.0,0.0,79,0.00,,SCT025,0.00,VWS V14.00,2013-01-24 03:36:00,
2013-01-23 22:41:00,50.5,44.3,30.41,SW,225,0.0,0.0,79,0.00,,SCT025,0.00,VWS V14.00,2013-01-24 03:41:00,
2013-01-23 22:46:00,50.2,43.9,30.39,SW,225,0.0,0.0,79,0.00,,SCT025,0.00,VWS V14.00,2013-01-24 03:46:00,
2013-01-23 22:51:00,50.2,43.9,30.39,SW,225,0.0,0.0,79,0.00,,SCT025,0.00,VWS V14.00,2013-01-24 03:51:00,
2013-01-23 22:56:00,50.2,43.9,30.39,SW,225,0.0,0.0,79,0.00,,SCT025,0.00,VWS V14.00,2013-01-24 03:56:00,
2013-01-23 23:01:00,50.2,43.9,30.41,SW,225,0.0,0.0,79,0.00,,SCT025,0.00,VWS V14.00,2013-01-24 04:01:00,
2013-01-23 23:06:00,50.2,44.3,30.41,SW,225,0.0,0.0,80,0.00,,SCT025,0.00,VWS V14.00,2013-01-24 04:06:00,
2013-01-23 23:11:00,50.2,44.6,30.41,SW,225,0.0,0.0,81,0.00,,SCT025,0.00,VWS V14.00,2013-01-24 04:11:00,
2013-01-23 23:16:00,50.2,44.6,30.41,SW,225,0.0,0.0,81,0.00,,SCT025,0.00,VWS V14.00,2013-01-24 04:16:00,
2013-01-23 23:21:00,49.5,44.5,30.41,SW,225,0.0,0.0,83,0.00,,SCT025,0.00,VWS V14.00,2013-01-24 04:21:00,
2013-01-23 23:26:00,49.3,44.3,30.41,SW,225,0.0,0.0,83,0.00,,SCT025,0.00,VWS V14.00,2013-01-24 04:26:00,
2013-01-23 23:31:00,49.5,44.5,30.41,SW,225,0.0,0.0,83,0.00,,SCT025,0.00,VWS V14.00,2013-01-24 04:31:00,
2013-01-23 23:36:00,49.5,44.5,30.41,SW,225,0.0,0.0,83,0.00,,SCT025,0.00,VWS V14.00,2013-01-24 04:36:00,
2013-01-23 23:41:00,49.5,44.5,30.41,SW,225,0.0,0.0,83,0.00,,SCT025,0.00,VWS V14.00,2013-01-24 04:41:00,
2013-01-23 23:46:00,48.9,44.0,30.41,SW,225,0.0,0.0,83,0.00,,SCT025,0.00,VWS V14.00,2013-01-24 04:46:00,
2013-01-23 23:51:00,48.7,44.1,30.41,SW,225,0.0,0.0,84,0.00,,SCT025,0.00,VWS V14.00,2013-01-24 04:51:00,
2013-01-23 23:56:00,48.6,44.0,30.41,SW,225,0.0,0.0,84,0.00,,SCT025,0.00,VWS V14.00,2013-01-24 04:56:00,